sensor_id;sensor_type;location;lat;lon;timestamp;pressure;altitude;pressure_sealevel;temperature;humidity
33153;BME280;19509;43.862;26.176;2023-02-01T00:01:07;100863.72;;;-0.02;89.98
33153;BME280;19509;43.862;26.176;2023-02-01T00:03:33;100857.59;;;-0.03;89.98
33153;BME280;19509;43.862;26.176;2023-02-01T00:05:59;100856.91;;;0.05;89.53
33153;BME280;19509;43.862;26.176;2023-02-01T00:08:25;100851.63;;;0.05;89.63
33153;BME280;19509;43.862;26.176;2023-02-01T00:11:08;100860.66;;;0.03;89.25
33153;BME280;19509;43.862;26.176;2023-02-01T00:13:37;100865.56;;;0.07;89.07
33153;BME280;19509;43.862;26.176;2023-02-01T00:16:19;100867.91;;;0.01;89.23
33153;BME280;19509;43.862;26.176;2023-02-01T00:18:46;100870.94;;;-0.04;89.72
33153;BME280;19509;43.862;26.176;2023-02-01T00:21:14;100879.63;;;0.08;89.19
33153;BME280;19509;43.862;26.176;2023-02-01T00:23:40;100883.66;;;0.02;89.09
33153;BME280;19509;43.862;26.176;2023-02-01T00:26:07;100886.19;;;0.04;89.26
33153;BME280;19509;43.862;26.176;2023-02-01T00:28:36;100873.91;;;0.03;89.31
33153;BME280;19509;43.862;26.176;2023-02-01T00:31:03;100880.03;;;-0.07;89.71
33153;BME280;19509;43.862;26.176;2023-02-01T00:33:30;100887.66;;;-0.04;89.45
33153;BME280;19509;43.862;26.176;2023-02-01T00:35:57;100887.81;;;-0.05;89.54
33153;BME280;19509;43.862;26.176;2023-02-01T00:38:24;100890.19;;;-0.02;89.15
33153;BME280;19509;43.862;26.176;2023-02-01T00:40:49;100891.28;;;-0.05;89.46
33153;BME280;19509;43.862;26.176;2023-02-01T00:43:15;100887.81;;;-0.05;89.42
33153;BME280;19509;43.862;26.176;2023-02-01T00:45:40;100881.28;;;-0.01;89.62
33153;BME280;19509;43.862;26.176;2023-02-01T00:48:05;100874.44;;;-0.04;89.71
33153;BME280;19509;43.862;26.176;2023-02-01T00:50:31;100888.38;;;-0.02;89.90
33153;BME280;19509;43.862;26.176;2023-02-01T00:52:56;100878.78;;;-0.03;89.86
33153;BME280;19509;43.862;26.176;2023-02-01T00:55:21;100881.28;;;-0.01;90.17
33153;BME280;19509;43.862;26.176;2023-02-01T00:57:47;100885.63;;;0.00;90.23
33153;BME280;19509;43.862;26.176;2023-02-01T01:00:13;100893.94;;;-0.05;90.32
33153;BME280;19509;43.862;26.176;2023-02-01T01:02:38;100901.19;;;-0.07;90.93
33153;BME280;19509;43.862;26.176;2023-02-01T01:05:04;100898.25;;;-0.04;90.62
33153;BME280;19509;43.862;26.176;2023-02-01T01:07:29;100891.16;;;-0.03;90.74
33153;BME280;19509;43.862;26.176;2023-02-01T01:09:54;100890.44;;;-0.05;90.67
33153;BME280;19509;43.862;26.176;2023-02-01T01:12:20;100886.78;;;-0.14;91.12
33153;BME280;19509;43.862;26.176;2023-02-01T01:14:45;100888.75;;;-0.16;90.62
33153;BME280;19509;43.862;26.176;2023-02-01T01:17:11;100888.88;;;-0.17;90.52
33153;BME280;19509;43.862;26.176;2023-02-01T01:19:36;100888.72;;;-0.26;90.84
33153;BME280;19509;43.862;26.176;2023-02-01T01:22:02;100890.63;;;-0.28;90.61
33153;BME280;19509;43.862;26.176;2023-02-01T01:24:27;100883.94;;;-0.32;90.69
33153;BME280;19509;43.862;26.176;2023-02-01T01:26:53;100879.06;;;-0.36;90.61
33153;BME280;19509;43.862;26.176;2023-02-01T01:29:18;100873.88;;;-0.38;90.77
33153;BME280;19509;43.862;26.176;2023-02-01T01:31:43;100881.97;;;-0.39;90.62
33153;BME280;19509;43.862;26.176;2023-02-01T01:34:09;100879.84;;;-0.45;90.77
33153;BME280;19509;43.862;26.176;2023-02-01T01:36:34;100879.22;;;-0.59;91.10
33153;BME280;19509;43.862;26.176;2023-02-01T01:39:00;100876.41;;;-0.67;91.39
33153;BME280;19509;43.862;26.176;2023-02-01T01:41:29;100874.53;;;-0.76;91.50
33153;BME280;19509;43.862;26.176;2023-02-01T01:43:56;100875.75;;;-0.80;91.76
33153;BME280;19509;43.862;26.176;2023-02-01T01:46:30;100883.44;;;-0.77;91.85
33153;BME280;19509;43.862;26.176;2023-02-01T01:51:46;100867.78;;;-0.90;91.79
33153;BME280;19509;43.862;26.176;2023-02-01T01:54:17;100870.56;;;-0.91;91.68
33153;BME280;19509;43.862;26.176;2023-02-01T01:56:47;100864.88;;;-1.08;91.74
33153;BME280;19509;43.862;26.176;2023-02-01T01:59:14;100866.53;;;-1.07;92.03
33153;BME280;19509;43.862;26.176;2023-02-01T02:01:40;100875.94;;;-1.14;92.11
33153;BME280;19509;43.862;26.176;2023-02-01T02:04:05;100869.75;;;-1.24;92.58
33153;BME280;19509;43.862;26.176;2023-02-01T02:06:43;100873.47;;;-1.27;92.58
33153;BME280;19509;43.862;26.176;2023-02-01T02:09:13;100869.34;;;-1.20;92.34
33153;BME280;19509;43.862;26.176;2023-02-01T02:11:39;100877.09;;;-1.07;91.86
33153;BME280;19509;43.862;26.176;2023-02-01T02:14:07;100875.06;;;-1.03;91.87
33153;BME280;19509;43.862;26.176;2023-02-01T02:16:48;100871.97;;;-1.08;92.04
33153;BME280;19509;43.862;26.176;2023-02-01T02:28:29;100877.84;;;-1.05;91.93
33153;BME280;19509;43.862;26.176;2023-02-01T02:44:30;100876.44;;;-1.20;91.43
33153;BME280;19509;43.862;26.176;2023-02-01T02:47:52;100878.25;;;-1.21;91.24
33153;BME280;19509;43.862;26.176;2023-02-01T02:50:29;100874.31;;;-1.26;91.35
33153;BME280;19509;43.862;26.176;2023-02-01T02:53:23;100880.47;;;-1.37;91.32
33153;BME280;19509;43.862;26.176;2023-02-01T02:56:08;100868.91;;;-1.46;91.36
33153;BME280;19509;43.862;26.176;2023-02-01T02:58:55;100878.59;;;-1.46;91.55
33153;BME280;19509;43.862;26.176;2023-02-01T03:01:40;100874.78;;;-1.53;91.46
33153;BME280;19509;43.862;26.176;2023-02-01T03:04:24;100867.72;;;-1.64;91.66
33153;BME280;19509;43.862;26.176;2023-02-01T03:06:52;100875.91;;;-1.67;91.58
33153;BME280;19509;43.862;26.176;2023-02-01T03:11:47;100880.03;;;-1.85;91.98
33153;BME280;19509;43.862;26.176;2023-02-01T03:14:35;100879.91;;;-1.95;92.34
33153;BME280;19509;43.862;26.176;2023-02-01T03:17:07;100882.81;;;-1.98;92.89
33153;BME280;19509;43.862;26.176;2023-02-01T03:19:42;100870.59;;;-2.10;92.89
33153;BME280;19509;43.862;26.176;2023-02-01T03:22:15;100881.13;;;-1.99;93.08
33153;BME280;19509;43.862;26.176;2023-02-01T03:24:49;100875.38;;;-2.04;93.09
33153;BME280;19509;43.862;26.176;2023-02-01T03:27:30;100893.22;;;-2.08;93.12
33153;BME280;19509;43.862;26.176;2023-02-01T03:32:36;100899.34;;;-2.07;93.37
33153;BME280;19509;43.862;26.176;2023-02-01T03:35:27;100900.78;;;-2.15;92.76
33153;BME280;19509;43.862;26.176;2023-02-01T03:38:00;100905.22;;;-2.15;92.83
33153;BME280;19509;43.862;26.176;2023-02-01T03:40:27;100895.75;;;-2.18;93.36
33153;BME280;19509;43.862;26.176;2023-02-01T03:42:55;100895.75;;;-2.18;93.31
33153;BME280;19509;43.862;26.176;2023-02-01T03:45:27;100908.00;;;-2.05;93.61
33153;BME280;19509;43.862;26.176;2023-02-01T03:47:58;100905.56;;;-1.97;93.59
33153;BME280;19509;43.862;26.176;2023-02-01T03:50:26;100904.97;;;-1.89;93.37
33153;BME280;19509;43.862;26.176;2023-02-01T03:53:07;100908.22;;;-1.86;93.52
33153;BME280;19509;43.862;26.176;2023-02-01T03:55:35;100905.19;;;-1.81;93.45
33153;BME280;19509;43.862;26.176;2023-02-01T03:58:06;100908.06;;;-1.73;93.40
33153;BME280;19509;43.862;26.176;2023-02-01T04:00:33;100909.59;;;-1.71;93.21
33153;BME280;19509;43.862;26.176;2023-02-01T04:02:58;100903.59;;;-1.61;93.04
33153;BME280;19509;43.862;26.176;2023-02-01T04:05:24;100899.28;;;-1.62;93.14
33153;BME280;19509;43.862;26.176;2023-02-01T04:07:49;100912.59;;;-1.53;92.92
33153;BME280;19509;43.862;26.176;2023-02-01T04:10:15;100910.78;;;-1.52;93.00
33153;BME280;19509;43.862;26.176;2023-02-01T04:12:41;100905.13;;;-1.48;93.13
33153;BME280;19509;43.862;26.176;2023-02-01T04:15:07;100898.63;;;-1.44;92.97
33153;BME280;19509;43.862;26.176;2023-02-01T04:17:32;100900.56;;;-1.46;93.42
33153;BME280;19509;43.862;26.176;2023-02-01T04:19:58;100897.88;;;-1.34;93.24
33153;BME280;19509;43.862;26.176;2023-02-01T04:22:23;100899.63;;;-1.24;92.95
33153;BME280;19509;43.862;26.176;2023-02-01T04:24:49;100899.03;;;-1.27;92.90
33153;BME280;19509;43.862;26.176;2023-02-01T04:27:14;100901.97;;;-1.09;92.78
33153;BME280;19509;43.862;26.176;2023-02-01T04:29:40;100910.56;;;-0.96;92.71
33153;BME280;19509;43.862;26.176;2023-02-01T04:32:06;100915.72;;;-0.94;92.96
33153;BME280;19509;43.862;26.176;2023-02-01T04:34:32;100904.63;;;-0.88;92.98
33153;BME280;19509;43.862;26.176;2023-02-01T04:36:57;100908.31;;;-0.80;92.79
33153;BME280;19509;43.862;26.176;2023-02-01T04:39:23;100904.44;;;-0.76;92.68
33153;BME280;19509;43.862;26.176;2023-02-01T04:41:48;100908.78;;;-0.75;92.79
33153;BME280;19509;43.862;26.176;2023-02-01T04:44:16;100899.97;;;-0.75;92.47
33153;BME280;19509;43.862;26.176;2023-02-01T04:46:41;100899.28;;;-0.77;92.71
33153;BME280;19509;43.862;26.176;2023-02-01T04:49:09;100906.00;;;-0.73;92.84
33153;BME280;19509;43.862;26.176;2023-02-01T04:51:34;100911.13;;;-0.72;92.51
33153;BME280;19509;43.862;26.176;2023-02-01T04:54:00;100907.53;;;-0.70;92.63
33153;BME280;19509;43.862;26.176;2023-02-01T04:56:25;100911.34;;;-0.63;92.37
33153;BME280;19509;43.862;26.176;2023-02-01T04:58:51;100911.59;;;-0.66;92.72
33153;BME280;19509;43.862;26.176;2023-02-01T05:01:16;100908.88;;;-0.55;92.32
33153;BME280;19509;43.862;26.176;2023-02-01T05:03:41;100911.41;;;-0.54;92.05
33153;BME280;19509;43.862;26.176;2023-02-01T05:06:07;100905.13;;;-0.53;92.22
33153;BME280;19509;43.862;26.176;2023-02-01T05:08:33;100902.22;;;-0.50;92.07
33153;BME280;19509;43.862;26.176;2023-02-01T05:10:59;100906.84;;;-0.42;91.58
33153;BME280;19509;43.862;26.176;2023-02-01T05:13:27;100898.34;;;-0.45;91.49
33153;BME280;19509;43.862;26.176;2023-02-01T05:16:11;100897.94;;;-0.41;91.44
33153;BME280;19509;43.862;26.176;2023-02-01T05:18:37;100893.13;;;-0.36;91.01
33153;BME280;19509;43.862;26.176;2023-02-01T05:21:02;100897.94;;;-0.41;91.30
33153;BME280;19509;43.862;26.176;2023-02-01T05:23:28;100896.16;;;-0.40;91.24
33153;BME280;19509;43.862;26.176;2023-02-01T05:26:01;100894.88;;;-0.46;90.92
33153;BME280;19509;43.862;26.176;2023-02-01T05:28:27;100896.13;;;-0.50;90.81
33153;BME280;19509;43.862;26.176;2023-02-01T05:30:53;100900.31;;;-0.47;90.90
33153;BME280;19509;43.862;26.176;2023-02-01T05:33:18;100903.91;;;-0.49;90.87
33153;BME280;19509;43.862;26.176;2023-02-01T05:35:44;100895.78;;;-0.57;90.84
33153;BME280;19509;43.862;26.176;2023-02-01T05:38:09;100893.84;;;-0.55;90.62
33153;BME280;19509;43.862;26.176;2023-02-01T05:40:35;100895.91;;;-0.58;91.17
33153;BME280;19509;43.862;26.176;2023-02-01T05:43:00;100895.06;;;-0.59;90.90
33153;BME280;19509;43.862;26.176;2023-02-01T05:45:25;100901.34;;;-0.60;90.75
33153;BME280;19509;43.862;26.176;2023-02-01T05:47:51;100907.91;;;-0.54;90.90
33153;BME280;19509;43.862;26.176;2023-02-01T05:50:16;100909.34;;;-0.50;90.76
33153;BME280;19509;43.862;26.176;2023-02-01T05:52:42;100906.69;;;-0.50;90.35
33153;BME280;19509;43.862;26.176;2023-02-01T05:55:07;100902.34;;;-0.51;90.33
33153;BME280;19509;43.862;26.176;2023-02-01T05:57:33;100897.16;;;-0.32;89.94
33153;BME280;19509;43.862;26.176;2023-02-01T05:59:58;100895.63;;;0.06;88.21
33153;BME280;19509;43.862;26.176;2023-02-01T06:02:24;100900.72;;;0.29;86.60
33153;BME280;19509;43.862;26.176;2023-02-01T06:04:50;100904.69;;;0.13;86.21
33153;BME280;19509;43.862;26.176;2023-02-01T06:07:15;100903.63;;;-0.15;87.00
33153;BME280;19509;43.862;26.176;2023-02-01T06:09:41;100912.78;;;-0.29;87.95
33153;BME280;19509;43.862;26.176;2023-02-01T06:12:07;100917.75;;;-0.35;88.29
33153;BME280;19509;43.862;26.176;2023-02-01T06:14:32;100907.22;;;-0.26;87.55
33153;BME280;19509;43.862;26.176;2023-02-01T06:16:57;100903.53;;;-0.34;87.74
33153;BME280;19509;43.862;26.176;2023-02-01T06:19:23;100910.66;;;-0.35;88.03
33153;BME280;19509;43.862;26.176;2023-02-01T06:21:49;100900.63;;;0.98;83.99
33153;BME280;19509;43.862;26.176;2023-02-01T06:24:14;100908.72;;;1.16;81.18
33153;BME280;19509;43.862;26.176;2023-02-01T06:26:40;100909.94;;;1.22;80.69
33153;BME280;19509;43.862;26.176;2023-02-01T06:29:14;100901.75;;;0.86;81.53
33153;BME280;19509;43.862;26.176;2023-02-01T06:31:40;100908.16;;;0.44;83.24
33153;BME280;19509;43.862;26.176;2023-02-01T06:34:07;100907.38;;;0.23;84.42
33153;BME280;19509;43.862;26.176;2023-02-01T06:36:32;100917.09;;;0.13;85.20
33153;BME280;19509;43.862;26.176;2023-02-01T06:38:58;100913.50;;;0.14;85.47
33153;BME280;19509;43.862;26.176;2023-02-01T06:41:25;100909.34;;;0.21;85.42
33153;BME280;19509;43.862;26.176;2023-02-01T06:43:50;100915.78;;;0.28;85.13
33153;BME280;19509;43.862;26.176;2023-02-01T06:46:16;100903.09;;;0.32;84.47
33153;BME280;19509;43.862;26.176;2023-02-01T06:48:41;100916.47;;;0.40;84.91
33153;BME280;19509;43.862;26.176;2023-02-01T06:51:19;100922.34;;;0.53;84.31
33153;BME280;19509;43.862;26.176;2023-02-01T06:53:45;100920.28;;;0.57;84.30
33153;BME280;19509;43.862;26.176;2023-02-01T06:56:10;100921.94;;;0.58;83.49
33153;BME280;19509;43.862;26.176;2023-02-01T06:58:36;100930.47;;;0.71;83.79
33153;BME280;19509;43.862;26.176;2023-02-01T07:01:07;100933.13;;;0.81;83.31
33153;BME280;19509;43.862;26.176;2023-02-01T07:03:32;100923.38;;;0.91;82.75
33153;BME280;19509;43.862;26.176;2023-02-01T07:05:58;100940.25;;;0.90;82.71
33153;BME280;19509;43.862;26.176;2023-02-01T07:08:24;100919.75;;;0.92;82.32
33153;BME280;19509;43.862;26.176;2023-02-01T07:10:51;100934.25;;;1.07;82.10
33153;BME280;19509;43.862;26.176;2023-02-01T07:13:17;100931.31;;;1.10;81.64
33153;BME280;19509;43.862;26.176;2023-02-01T07:15:42;100940.09;;;1.11;81.65
33153;BME280;19509;43.862;26.176;2023-02-01T07:18:07;100937.59;;;1.19;81.72
33153;BME280;19509;43.862;26.176;2023-02-01T07:20:33;100944.69;;;1.28;81.06
33153;BME280;19509;43.862;26.176;2023-02-01T07:22:58;100942.31;;;1.35;80.50
33153;BME280;19509;43.862;26.176;2023-02-01T07:25:24;100940.63;;;1.44;80.65
33153;BME280;19509;43.862;26.176;2023-02-01T07:27:49;100938.50;;;1.57;79.94
33153;BME280;19509;43.862;26.176;2023-02-01T07:30:15;100939.75;;;1.62;80.13
33153;BME280;19509;43.862;26.176;2023-02-01T07:32:40;100938.19;;;1.70;79.36
33153;BME280;19509;43.862;26.176;2023-02-01T07:35:06;100930.78;;;1.73;79.08
33153;BME280;19509;43.862;26.176;2023-02-01T07:37:31;100935.63;;;1.87;78.44
33153;BME280;19509;43.862;26.176;2023-02-01T07:39:57;100925.16;;;1.76;78.43
33153;BME280;19509;43.862;26.176;2023-02-01T07:42:22;100926.25;;;1.83;79.75
33153;BME280;19509;43.862;26.176;2023-02-01T07:44:47;100931.25;;;1.96;78.79
33153;BME280;19509;43.862;26.176;2023-02-01T07:47:13;100921.44;;;2.06;79.00
33153;BME280;19509;43.862;26.176;2023-02-01T07:49:38;100927.88;;;2.04;78.21
33153;BME280;19509;43.862;26.176;2023-02-01T07:52:04;100924.63;;;2.10;78.19
33153;BME280;19509;43.862;26.176;2023-02-01T07:54:29;100929.94;;;2.10;77.88
33153;BME280;19509;43.862;26.176;2023-02-01T07:56:54;100924.44;;;2.21;77.32
33153;BME280;19509;43.862;26.176;2023-02-01T07:59:20;100929.31;;;2.26;78.06
33153;BME280;19509;43.862;26.176;2023-02-01T08:01:45;100931.25;;;2.24;77.79
33153;BME280;19509;43.862;26.176;2023-02-01T08:04:12;100928.19;;;2.28;77.65
33153;BME280;19509;43.862;26.176;2023-02-01T08:06:37;100925.94;;;2.24;76.94
33153;BME280;19509;43.862;26.176;2023-02-01T08:09:04;100929.69;;;2.31;77.37
33153;BME280;19509;43.862;26.176;2023-02-01T08:11:30;100934.22;;;2.21;77.13
33153;BME280;19509;43.862;26.176;2023-02-01T08:13:56;100922.91;;;2.19;77.62
33153;BME280;19509;43.862;26.176;2023-02-01T08:16:23;100928.78;;;2.22;77.40
33153;BME280;19509;43.862;26.176;2023-02-01T08:18:49;100940.56;;;2.37;77.47
33153;BME280;19509;43.862;26.176;2023-02-01T08:21:17;100935.94;;;2.40;76.43
33153;BME280;19509;43.862;26.176;2023-02-01T08:23:43;100929.19;;;2.45;76.55
33153;BME280;19509;43.862;26.176;2023-02-01T08:28:34;100931.41;;;2.50;76.92
33153;BME280;19509;43.862;26.176;2023-02-01T08:31:07;100926.78;;;2.52;75.79
33153;BME280;19509;43.862;26.176;2023-02-01T08:33:34;100927.38;;;2.46;75.78
33153;BME280;19509;43.862;26.176;2023-02-01T08:36:02;100927.38;;;2.46;76.53
33153;BME280;19509;43.862;26.176;2023-02-01T08:38:27;100921.19;;;2.55;76.64
33153;BME280;19509;43.862;26.176;2023-02-01T08:40:53;100923.16;;;2.71;76.34
33153;BME280;19509;43.862;26.176;2023-02-01T08:43:18;100930.22;;;2.80;76.76
33153;BME280;19509;43.862;26.176;2023-02-01T08:45:44;100927.16;;;2.75;75.43
33153;BME280;19509;43.862;26.176;2023-02-01T08:48:09;100937.19;;;2.81;76.29
33153;BME280;19509;43.862;26.176;2023-02-01T08:50:35;100940.38;;;2.84;76.08
33153;BME280;19509;43.862;26.176;2023-02-01T08:53:00;100944.88;;;2.84;76.06
33153;BME280;19509;43.862;26.176;2023-02-01T08:55:26;100941.75;;;2.89;76.35
33153;BME280;19509;43.862;26.176;2023-02-01T08:57:51;100939.78;;;2.91;76.47
33153;BME280;19509;43.862;26.176;2023-02-01T09:00:17;100945.63;;;2.94;76.78
33153;BME280;19509;43.862;26.176;2023-02-01T09:02:44;100940.72;;;2.99;76.86
33153;BME280;19509;43.862;26.176;2023-02-01T09:05:09;100936.81;;;3.12;76.86
33153;BME280;19509;43.862;26.176;2023-02-01T09:07:36;100939.78;;;3.08;76.31
33153;BME280;19509;43.862;26.176;2023-02-01T09:10:03;100944.13;;;3.10;77.13
33153;BME280;19509;43.862;26.176;2023-02-01T09:12:30;100940.25;;;3.04;77.11
33153;BME280;19509;43.862;26.176;2023-02-01T09:14:57;100946.84;;;3.18;77.68
33153;BME280;19509;43.862;26.176;2023-02-01T09:17:25;100940.44;;;3.28;77.52
33153;BME280;19509;43.862;26.176;2023-02-01T09:19:51;100942.66;;;3.33;77.06
33153;BME280;19509;43.862;26.176;2023-02-01T09:22:16;100949.03;;;3.40;77.30
33153;BME280;19509;43.862;26.176;2023-02-01T09:24:42;100932.25;;;3.22;76.80
33153;BME280;19509;43.862;26.176;2023-02-01T09:27:07;100936.22;;;3.18;77.47
33153;BME280;19509;43.862;26.176;2023-02-01T09:29:33;100935.50;;;3.34;77.80
33153;BME280;19509;43.862;26.176;2023-02-01T09:31:58;100934.03;;;3.13;76.83
33153;BME280;19509;43.862;26.176;2023-02-01T09:34:24;100927.66;;;3.32;77.04
33153;BME280;19509;43.862;26.176;2023-02-01T09:36:50;100923.81;;;3.26;76.72
33153;BME280;19509;43.862;26.176;2023-02-01T09:39:15;100918.56;;;3.35;76.83
33153;BME280;19509;43.862;26.176;2023-02-01T09:45:03;100911.41;;;3.35;76.58
33153;BME280;19509;43.862;26.176;2023-02-01T09:47:30;100904.09;;;3.63;77.18
33153;BME280;19509;43.862;26.176;2023-02-01T09:52:36;100900.19;;;3.75;76.55
33153;BME280;19509;43.862;26.176;2023-02-01T09:55:09;100892.72;;;3.79;76.73
33153;BME280;19509;43.862;26.176;2023-02-01T10:00:17;100902.09;;;3.91;75.67
33153;BME280;19509;43.862;26.176;2023-02-01T10:02:45;100902.53;;;4.13;75.27
33153;BME280;19509;43.862;26.176;2023-02-01T10:05:16;100907.09;;;4.45;74.88
33153;BME280;19509;43.862;26.176;2023-02-01T10:10:36;100898.09;;;4.38;74.38
33153;BME280;19509;43.862;26.176;2023-02-01T10:16:13;100888.25;;;4.30;74.77
33153;BME280;19509;43.862;26.176;2023-02-01T10:18:57;100888.81;;;4.50;73.97
33153;BME280;19509;43.862;26.176;2023-02-01T10:21:51;100883.66;;;4.57;72.53
33153;BME280;19509;43.862;26.176;2023-02-01T10:27:01;100854.59;;;4.21;73.58
33153;BME280;19509;43.862;26.176;2023-02-01T10:29:32;100860.09;;;4.27;73.86
33153;BME280;19509;43.862;26.176;2023-02-01T10:32:00;100859.63;;;4.40;74.27
33153;BME280;19509;43.862;26.176;2023-02-01T10:34:28;100863.63;;;4.44;73.89
33153;BME280;19509;43.862;26.176;2023-02-01T10:37:11;100854.81;;;4.44;74.33
33153;BME280;19509;43.862;26.176;2023-02-01T10:39:44;100850.84;;;4.56;74.41
33153;BME280;19509;43.862;26.176;2023-02-01T10:42:10;100850.00;;;4.64;73.83
33153;BME280;19509;43.862;26.176;2023-02-01T10:44:40;100846.00;;;4.43;73.83
33153;BME280;19509;43.862;26.176;2023-02-01T10:47:09;100850.34;;;4.53;74.51
33153;BME280;19509;43.862;26.176;2023-02-01T10:52:17;100841.22;;;4.96;72.96
33153;BME280;19509;43.862;26.176;2023-02-01T10:54:44;100827.53;;;4.83;73.65
33153;BME280;19509;43.862;26.176;2023-02-01T10:57:21;100829.03;;;4.93;73.70
33153;BME280;19509;43.862;26.176;2023-02-01T10:59:47;100824.03;;;4.90;73.79
33153;BME280;19509;43.862;26.176;2023-02-01T11:02:32;100817.88;;;4.90;74.59
33153;BME280;19509;43.862;26.176;2023-02-01T11:05:04;100816.66;;;5.09;74.23
33153;BME280;19509;43.862;26.176;2023-02-01T11:07:31;100812.16;;;5.09;73.33
33153;BME280;19509;43.862;26.176;2023-02-01T11:09:57;100810.50;;;5.08;73.18
33153;BME280;19509;43.862;26.176;2023-02-01T11:12:32;100806.69;;;5.11;73.26
33153;BME280;19509;43.862;26.176;2023-02-01T11:17:33;100813.91;;;5.58;71.86
33153;BME280;19509;43.862;26.176;2023-02-01T11:20:02;100811.38;;;5.64;71.46
33153;BME280;19509;43.862;26.176;2023-02-01T11:22:30;100804.00;;;5.75;70.53
33153;BME280;19509;43.862;26.176;2023-02-01T11:24:56;100806.34;;;5.69;70.84
33153;BME280;19509;43.862;26.176;2023-02-01T11:27:24;100796.81;;;5.67;70.61
33153;BME280;19509;43.862;26.176;2023-02-01T11:29:53;100797.16;;;5.72;70.82
33153;BME280;19509;43.862;26.176;2023-02-01T11:32:22;100790.56;;;5.91;70.92
33153;BME280;19509;43.862;26.176;2023-02-01T11:35:24;100783.19;;;5.62;70.25
33153;BME280;19509;43.862;26.176;2023-02-01T11:37:44;100776.97;;;5.30;70.91
33153;BME280;19509;43.862;26.176;2023-02-01T11:42:57;100764.97;;;5.65;70.83
33153;BME280;19509;43.862;26.176;2023-02-01T11:45:31;100772.25;;;5.80;70.37
33153;BME280;19509;43.862;26.176;2023-02-01T11:48:08;100751.16;;;5.93;71.06
33153;BME280;19509;43.862;26.176;2023-02-01T11:50:37;100755.59;;;6.09;69.77
33153;BME280;19509;43.862;26.176;2023-02-01T11:55:56;100757.66;;;5.90;70.95
33153;BME280;19509;43.862;26.176;2023-02-01T12:06:46;100741.69;;;5.51;72.65
33153;BME280;19509;43.862;26.176;2023-02-01T12:12:12;100749.84;;;5.50;72.84
33153;BME280;19509;43.862;26.176;2023-02-01T12:15:05;100752.16;;;5.61;72.95
33153;BME280;19509;43.862;26.176;2023-02-01T12:29:12;100735.84;;;5.48;73.44
33153;BME280;19509;43.862;26.176;2023-02-01T12:42:40;100725.38;;;5.38;73.72
33153;BME280;19509;43.862;26.176;2023-02-01T12:45:15;100738.47;;;5.56;74.04
33153;BME280;19509;43.862;26.176;2023-02-01T12:48:11;100737.41;;;5.73;73.18
33153;BME280;19509;43.862;26.176;2023-02-01T12:50:47;100734.97;;;5.86;72.81
33153;BME280;19509;43.862;26.176;2023-02-01T12:53:23;100738.75;;;6.08;71.75
33153;BME280;19509;43.862;26.176;2023-02-01T12:55:53;100734.81;;;6.42;71.15
33153;BME280;19509;43.862;26.176;2023-02-01T13:01:11;100723.91;;;6.29;70.17
33153;BME280;19509;43.862;26.176;2023-02-01T13:03:41;100724.22;;;6.49;69.98
33153;BME280;19509;43.862;26.176;2023-02-01T13:06:15;100721.41;;;6.65;70.19
33153;BME280;19509;43.862;26.176;2023-02-01T13:08:54;100714.41;;;6.79;69.24
33153;BME280;19509;43.862;26.176;2023-02-01T13:11:28;100716.81;;;6.74;69.91
33153;BME280;19509;43.862;26.176;2023-02-01T13:14:28;100710.22;;;6.47;70.35
33153;BME280;19509;43.862;26.176;2023-02-01T13:25:02;100718.47;;;6.14;70.99
33153;BME280;19509;43.862;26.176;2023-02-01T13:27:29;100723.69;;;6.30;70.18
33153;BME280;19509;43.862;26.176;2023-02-01T13:30:17;100723.81;;;6.37;70.36
33153;BME280;19509;43.862;26.176;2023-02-01T13:33:25;100722.09;;;6.44;69.20
33153;BME280;19509;43.862;26.176;2023-02-01T13:36:04;100722.91;;;6.45;69.15
33153;BME280;19509;43.862;26.176;2023-02-01T13:41:24;100719.97;;;6.39;68.19
33153;BME280;19509;43.862;26.176;2023-02-01T13:44:04;100723.63;;;6.38;68.96
33153;BME280;19509;43.862;26.176;2023-02-01T13:46:39;100723.16;;;6.35;68.72
33153;BME280;19509;43.862;26.176;2023-02-01T13:49:06;100710.34;;;6.30;68.49
33153;BME280;19509;43.862;26.176;2023-02-01T13:51:42;100719.72;;;6.26;68.00
33153;BME280;19509;43.862;26.176;2023-02-01T13:56:53;100709.28;;;6.16;67.84
33153;BME280;19509;43.862;26.176;2023-02-01T14:05:06;100715.63;;;6.15;69.08
33153;BME280;19509;43.862;26.176;2023-02-01T14:07:33;100714.63;;;6.16;68.73
33153;BME280;19509;43.862;26.176;2023-02-01T14:09:58;100717.53;;;6.07;69.58
33153;BME280;19509;43.862;26.176;2023-02-01T14:12:45;100711.41;;;5.98;69.44
33153;BME280;19509;43.862;26.176;2023-02-01T14:17:43;100694.72;;;5.96;69.60
33153;BME280;19509;43.862;26.176;2023-02-01T14:20:39;100704.44;;;5.89;69.76
33153;BME280;19509;43.862;26.176;2023-02-01T14:23:11;100706.28;;;5.88;70.22
33153;BME280;19509;43.862;26.176;2023-02-01T14:25:37;100707.63;;;5.84;70.46
33153;BME280;19509;43.862;26.176;2023-02-01T14:28:11;100699.31;;;5.79;69.73
33153;BME280;19509;43.862;26.176;2023-02-01T14:30:37;100717.00;;;5.80;69.35
33153;BME280;19509;43.862;26.176;2023-02-01T14:33:17;100709.88;;;5.73;69.48
33153;BME280;19509;43.862;26.176;2023-02-01T14:36:02;100706.19;;;5.74;70.25
33153;BME280;19509;43.862;26.176;2023-02-01T14:38:28;100716.25;;;5.63;70.38
33153;BME280;19509;43.862;26.176;2023-02-01T14:41:31;100707.63;;;5.53;70.48
33153;BME280;19509;43.862;26.176;2023-02-01T14:47:03;100709.53;;;5.36;71.04
33153;BME280;19509;43.862;26.176;2023-02-01T14:49:32;100713.75;;;5.31;70.77
33153;BME280;19509;43.862;26.176;2023-02-01T14:51:59;100710.75;;;5.26;70.88
33153;BME280;19509;43.862;26.176;2023-02-01T14:54:25;100707.28;;;5.17;71.45
33153;BME280;19509;43.862;26.176;2023-02-01T14:56:52;100715.63;;;5.14;71.42
33153;BME280;19509;43.862;26.176;2023-02-01T14:59:21;100722.16;;;5.03;71.56